Aviation Digital Data Service (ADDS)

Output produced by METARs form (0440 UTC 25 April 2017)
found at http://aviationweather.gov/adds/metars/
 
KRDU 242344Z 2500/2524 04010G18KT 2SM RA BR SCT006 BKN015 OVC025 
     TEMPO 2500/2503 1SM +SHRA OVC006 
     FM250300 03012G23KT 2SM RA BR OVC006 WS020/05045KT 
     FM251000 05011KT P6SM VCSH OVC008 
     FM251300 VRB06KT P6SM VCSH BKN015 
     PROB30 2517/2523 2SM RA BKN010 OVC025